createdAt,value
2023-04-11T00:01:03.421Z,87.00
2023-04-11T00:03:34.143Z,88.68
2023-04-11T00:06:04.060Z,96.03
2023-04-11T00:08:33.388Z,89.97
2023-04-11T00:11:02.589Z,87.32
2023-04-11T00:13:31.753Z,75.22
2023-04-11T00:16:03.362Z,84.63
2023-04-11T00:18:33.044Z,75.90
2023-04-11T00:21:02.401Z,78.13
2023-04-11T00:23:31.514Z,82.82
2023-04-11T00:26:00.844Z,107.45
2023-04-11T00:28:29.832Z,117.07
2023-04-11T00:30:59.241Z,115.20
2023-04-11T00:33:28.606Z,119.43
2023-04-11T00:35:58.740Z,119.10
2023-04-11T00:38:28.224Z,117.43
2023-04-11T00:40:57.539Z,124.70
2023-04-11T00:43:26.954Z,138.45
2023-04-11T00:45:56.515Z,133.93
2023-04-11T00:48:29.554Z,131.07
2023-04-11T00:50:59.567Z,149.03
2023-04-11T00:53:33.771Z,134.93
2023-04-11T00:56:03.432Z,148.40
2023-04-11T00:58:34.946Z,150.75
2023-04-11T01:01:10.506Z,151.10
2023-04-11T01:03:41.359Z,148.63
2023-04-11T01:06:14.901Z,147.85
2023-04-11T01:08:45.610Z,162.48
2023-04-11T01:11:19.617Z,162.38
2023-04-11T01:13:49.680Z,160.40
2023-04-11T01:16:22.682Z,157.98
2023-04-11T01:18:53.000Z,154.35
2023-04-11T01:21:23.624Z,153.70
2023-04-11T01:23:57.600Z,162.18
2023-04-11T01:26:27.357Z,151.82
2023-04-11T01:28:56.544Z,149.32
2023-04-11T01:31:26.167Z,151.43
2023-04-11T01:33:55.730Z,164.40
2023-04-11T01:36:25.928Z,156.27
2023-04-11T01:38:55.843Z,154.90
2023-04-11T01:41:29.220Z,158.95
2023-04-11T01:46:27.715Z,167.10
2023-04-11T01:48:59.641Z,167.07
2023-04-11T01:51:29.397Z,161.32
2023-04-11T01:53:58.493Z,161.73
2023-04-11T01:56:28.542Z,177.70
2023-04-11T01:59:00.117Z,163.85
2023-04-11T02:01:30.033Z,158.25
2023-04-11T02:03:59.935Z,168.50
2023-04-11T02:06:30.035Z,168.15
2023-04-11T02:08:59.593Z,166.00
2023-04-11T02:11:28.679Z,159.88
2023-04-11T02:13:58.583Z,172.57
2023-04-11T02:16:31.351Z,167.90
2023-04-11T02:21:30.340Z,160.95
2023-04-11T02:24:00.729Z,149.75
2023-04-11T02:26:30.043Z,147.95
2023-04-11T02:28:59.860Z,136.50
2023-04-11T02:31:29.189Z,132.88
2023-04-11T02:33:58.612Z,146.38
2023-04-11T02:36:29.574Z,136.50
2023-04-11T02:38:59.014Z,128.52
2023-04-11T02:41:29.653Z,135.40
2023-04-11T02:43:59.381Z,127.55
2023-04-11T02:46:28.487Z,120.88
2023-04-11T02:48:58.416Z,113.53
2023-04-11T02:51:28.230Z,112.40
2023-04-11T02:53:57.606Z,112.18
2023-04-11T02:56:27.457Z,107.82
2023-04-11T02:58:59.083Z,105.05
2023-04-11T03:01:30.597Z,113.90
2023-04-11T03:04:00.100Z,116.47
2023-04-11T03:06:39.376Z,112.05
2023-04-11T03:09:08.678Z,115.72
2023-04-11T03:11:39.443Z,121.45
2023-04-11T03:14:09.428Z,137.43
2023-04-11T03:16:38.554Z,124.25
2023-04-11T03:19:08.185Z,133.50
2023-04-11T03:21:37.460Z,123.63
2023-04-11T03:24:07.307Z,119.97
2023-04-11T03:26:36.865Z,115.70
2023-04-11T03:29:11.802Z,103.82
2023-04-11T03:31:53.645Z,102.47
2023-04-11T03:34:24.468Z,97.25
2023-04-11T03:36:55.030Z,99.47
2023-04-11T03:39:25.533Z,91.22
2023-04-11T03:41:59.853Z,88.13
2023-04-11T03:44:29.989Z,98.22
2023-04-11T03:46:59.870Z,93.20
2023-04-11T03:49:36.844Z,88.80
2023-04-11T03:52:08.817Z,78.95
2023-04-11T03:54:38.881Z,76.75
2023-04-11T03:57:11.836Z,86.83
2023-04-11T03:59:41.485Z,75.43
2023-04-11T04:02:16.703Z,73.88
2023-04-11T04:04:56.240Z,74.53
2023-04-11T04:07:30.853Z,74.65
2023-04-11T04:10:11.077Z,67.40
2023-04-11T04:12:42.113Z,59.33
2023-04-11T04:15:16.458Z,45.90
2023-04-11T04:17:49.621Z,38.60
2023-04-11T04:20:30.511Z,42.35
2023-04-11T04:23:01.803Z,44.80
2023-04-11T04:25:43.439Z,34.92
2023-04-11T04:28:13.944Z,45.63
2023-04-11T04:30:43.270Z,46.55
2023-04-11T04:33:15.718Z,60.47
2023-04-11T04:35:49.083Z,49.60
2023-04-11T04:38:19.156Z,62.83
2023-04-11T04:40:55.798Z,51.42
2023-04-11T04:43:28.446Z,57.03
2023-04-11T04:46:20.776Z,61.03
2023-04-11T04:48:55.863Z,66.05
2023-04-11T04:51:28.648Z,71.65
2023-04-11T04:54:01.271Z,62.70
2023-04-11T04:56:31.788Z,59.15
2023-04-11T04:59:01.746Z,58.65
2023-04-11T05:01:33.934Z,51.17
2023-04-11T05:04:06.996Z,40.40
2023-04-11T05:06:49.528Z,28.80
2023-04-11T05:09:19.729Z,29.70
2023-04-11T05:11:51.693Z,27.95
2023-04-11T05:14:24.357Z,19.77
2023-04-11T05:16:53.925Z,23.60
2023-04-11T05:19:23.425Z,23.00
2023-04-11T05:21:55.724Z,21.08
2023-04-11T05:24:25.353Z,21.88
2023-04-11T05:26:55.131Z,19.10
2023-04-11T05:29:24.625Z,22.75
2023-04-11T05:31:54.153Z,24.23
2023-04-11T05:34:23.725Z,21.80
2023-04-11T05:36:53.079Z,28.38
2023-04-11T05:39:22.957Z,26.88
2023-04-11T05:41:52.694Z,26.40
2023-04-11T05:44:22.859Z,34.90
2023-04-11T05:46:52.085Z,31.80
2023-04-11T05:49:21.244Z,30.65
2023-04-11T05:51:51.132Z,38.03
2023-04-11T05:54:34.972Z,37.15
2023-04-11T05:57:05.797Z,42.35
2023-04-11T05:59:37.156Z,32.80
2023-04-11T06:02:06.879Z,46.25
2023-04-11T06:04:36.369Z,46.28
2023-04-11T06:07:05.748Z,41.20
2023-04-11T06:09:35.231Z,40.88
2023-04-11T06:12:05.056Z,32.40
2023-04-11T06:14:34.320Z,28.35
2023-04-11T06:17:03.723Z,28.75
2023-04-11T06:19:32.985Z,22.58
2023-04-11T06:22:02.664Z,25.13
2023-04-11T06:24:40.399Z,32.10
2023-04-11T06:27:13.198Z,22.73
2023-04-11T06:29:46.649Z,24.77
2023-04-11T06:32:16.059Z,18.83
2023-04-11T06:34:45.509Z,21.85
2023-04-11T06:37:14.876Z,22.15
2023-04-11T06:39:44.444Z,26.30
2023-04-11T06:42:13.912Z,26.48
2023-04-11T06:44:50.346Z,22.08
2023-04-11T06:47:19.659Z,17.73
2023-04-11T06:49:49.615Z,20.25
2023-04-11T06:52:18.647Z,15.48
2023-04-11T06:54:50.185Z,16.25
2023-04-11T06:57:19.612Z,22.67
2023-04-11T06:59:48.661Z,22.63
2023-04-11T07:02:18.906Z,15.88
2023-04-11T07:04:48.052Z,25.80
2023-04-11T07:07:17.594Z,18.60
2023-04-11T07:09:48.415Z,10.80
2023-04-11T07:12:20.005Z,17.00
2023-04-11T07:14:49.751Z,13.43
2023-04-11T07:17:19.052Z,16.58
2023-04-11T07:19:48.601Z,14.23
2023-04-11T07:22:17.993Z,17.20
2023-04-11T07:24:47.731Z,17.73
2023-04-11T07:27:18.485Z,10.93
2023-04-11T07:29:47.754Z,14.13
2023-04-11T07:32:17.218Z,12.32
2023-04-11T07:34:46.828Z,8.25
2023-04-11T07:37:17.255Z,15.25
2023-04-11T07:39:46.300Z,15.15
2023-04-11T07:42:15.621Z,12.27
2023-04-11T07:44:44.889Z,12.55
2023-04-11T07:47:13.955Z,18.23
2023-04-11T07:49:43.405Z,17.23
2023-04-11T07:52:14.139Z,10.02
2023-04-11T07:54:43.945Z,12.45
2023-04-11T07:57:13.630Z,13.18
2023-04-11T07:59:43.766Z,17.92
2023-04-11T08:02:12.893Z,15.48
2023-04-11T08:04:42.878Z,12.82
2023-04-11T08:07:12.820Z,13.50
2023-04-11T08:09:43.526Z,19.13
2023-04-11T08:12:13.215Z,10.15
2023-04-11T08:14:42.572Z,16.40
2023-04-11T08:17:27.071Z,15.52
2023-04-11T08:19:58.479Z,13.77
2023-04-11T08:22:27.858Z,13.40
2023-04-11T08:24:57.370Z,18.83
2023-04-11T08:27:26.945Z,13.85
2023-04-11T08:29:56.795Z,13.63
2023-04-11T08:32:26.249Z,16.10
2023-04-11T08:34:55.850Z,22.45
2023-04-11T08:37:25.168Z,15.60
2023-04-11T08:39:54.465Z,18.45
2023-04-11T08:42:30.944Z,22.85
2023-04-11T08:45:03.338Z,23.13
2023-04-11T08:47:32.952Z,15.57
2023-04-11T08:50:02.302Z,13.65
2023-04-11T08:52:33.065Z,18.48
2023-04-11T08:55:02.646Z,18.55
2023-04-11T08:57:36.247Z,20.13
2023-04-11T09:00:15.518Z,10.00
2023-04-11T09:03:05.192Z,16.75
2023-04-11T09:05:39.777Z,11.68
2023-04-11T09:08:14.682Z,15.45
2023-04-11T09:10:46.651Z,13.93
2023-04-11T09:13:29.994Z,21.08
2023-04-11T09:16:13.956Z,15.32
2023-04-11T09:18:48.123Z,13.25
2023-04-11T09:21:18.505Z,16.83
2023-04-11T09:23:47.841Z,14.52
2023-04-11T09:26:29.454Z,11.02
2023-04-11T09:28:58.941Z,15.82
2023-04-11T09:31:46.755Z,17.40
2023-04-11T09:34:28.893Z,16.55
2023-04-11T09:36:58.978Z,14.80
2023-04-11T09:39:30.509Z,15.30
2023-04-11T09:42:00.562Z,14.77
2023-04-11T09:44:39.964Z,16.70
2023-04-11T09:47:10.958Z,20.35
2023-04-11T09:49:41.340Z,17.55
2023-04-11T09:52:10.808Z,14.38
2023-04-11T09:54:39.971Z,15.95
2023-04-11T09:57:10.462Z,14.60
2023-04-11T09:59:42.012Z,10.75
2023-04-11T10:02:11.540Z,15.93
2023-04-11T10:04:42.152Z,12.43
2023-04-11T10:07:18.121Z,15.52
2023-04-11T10:09:49.060Z,18.85
2023-04-11T10:12:38.518Z,20.60
2023-04-11T10:15:11.468Z,21.70
2023-04-11T10:17:42.161Z,27.35
2023-04-11T10:20:47.224Z,13.02
2023-04-11T10:23:17.591Z,11.90
2023-04-11T10:25:52.942Z,16.05
2023-04-11T10:28:32.385Z,18.13
2023-04-11T10:31:14.687Z,15.10
2023-04-11T10:34:15.472Z,12.18
2023-04-11T10:37:09.026Z,13.23
2023-04-11T10:42:47.963Z,16.23
2023-04-11T10:45:26.097Z,14.80
2023-04-11T10:47:58.274Z,14.48
2023-04-11T10:50:28.165Z,23.43
2023-04-11T10:53:02.267Z,16.83
2023-04-11T10:55:44.333Z,13.02
2023-04-11T10:58:17.966Z,13.18
2023-04-11T11:00:53.756Z,12.48
2023-04-11T11:03:25.651Z,30.35
2023-04-11T11:06:04.543Z,17.55
2023-04-11T11:08:47.575Z,12.40
2023-04-11T11:13:54.770Z,14.13
2023-04-11T11:16:26.773Z,11.95
2023-04-11T11:18:59.915Z,18.73
2023-04-11T11:21:31.310Z,12.18
2023-04-11T11:24:05.087Z,8.68
2023-04-11T11:26:46.192Z,16.63
2023-04-11T11:29:15.696Z,17.13
2023-04-11T11:31:47.903Z,15.40
2023-04-11T11:34:34.937Z,19.98
2023-04-11T11:37:06.049Z,13.45
2023-04-11T11:39:36.599Z,16.45
2023-04-11T11:42:07.311Z,36.67
2023-04-11T11:44:36.669Z,20.88
2023-04-11T11:47:10.674Z,19.70
2023-04-11T11:49:52.549Z,21.80
2023-04-11T11:52:42.665Z,25.13
2023-04-11T11:55:21.334Z,11.10
2023-04-11T11:57:51.752Z,16.85
2023-04-11T12:00:28.838Z,19.38
2023-04-11T12:03:02.813Z,14.80
2023-04-11T12:05:36.715Z,14.10
2023-04-11T12:08:08.880Z,11.63
2023-04-11T12:10:40.233Z,17.40
2023-04-11T12:13:28.185Z,19.70
2023-04-11T12:15:59.940Z,17.83
2023-04-11T12:18:30.337Z,19.27
2023-04-11T12:21:00.162Z,12.35
2023-04-11T12:23:29.505Z,13.45
2023-04-11T12:25:58.858Z,18.30
2023-04-11T12:28:28.951Z,12.27
2023-04-11T12:30:58.106Z,16.98
2023-04-11T12:33:27.558Z,18.33
2023-04-11T12:35:56.990Z,17.25
2023-04-11T12:38:26.255Z,16.27
2023-04-11T12:41:13.818Z,17.75
2023-04-11T12:43:45.505Z,15.70
2023-04-11T12:46:15.620Z,22.95
2023-04-11T12:48:45.002Z,13.70
2023-04-11T12:51:14.991Z,24.30
2023-04-11T12:53:44.916Z,16.88
2023-04-11T12:56:14.136Z,21.30
2023-04-11T12:58:43.531Z,19.70
2023-04-11T13:01:13.236Z,25.63
2023-04-11T13:03:43.081Z,21.98
2023-04-11T13:06:12.449Z,25.52
2023-04-11T13:08:42.410Z,25.05
2023-04-11T13:11:12.370Z,25.42
2023-04-11T13:13:41.856Z,15.98
2023-04-11T13:16:12.954Z,25.52
2023-04-11T13:18:43.124Z,25.30
2023-04-11T13:21:12.191Z,19.40
2023-04-11T13:23:41.685Z,30.08
2023-04-11T13:26:11.017Z,35.00
2023-04-11T13:28:40.587Z,33.53
2023-04-11T13:31:13.073Z,28.25
2023-04-11T13:33:43.840Z,44.83
2023-04-11T13:36:13.483Z,28.33
2023-04-11T13:38:42.672Z,22.50
2023-04-11T13:41:13.737Z,23.55
2023-04-11T13:43:44.165Z,16.02
2023-04-11T13:46:13.779Z,17.35
2023-04-11T13:48:43.263Z,23.20
2023-04-11T13:51:13.059Z,20.85
2023-04-11T13:53:42.747Z,19.73
2023-04-11T13:56:12.420Z,21.23
2023-04-11T13:58:42.089Z,20.40
2023-04-11T14:01:11.797Z,21.08
2023-04-11T14:03:44.210Z,23.20
2023-04-11T14:06:13.753Z,31.42
2023-04-11T14:08:42.977Z,16.98
2023-04-11T14:11:13.678Z,16.77
2023-04-11T14:13:44.745Z,14.05
2023-04-11T14:16:15.352Z,18.73
2023-04-11T14:18:45.760Z,21.58
2023-04-11T14:21:15.487Z,20.75
2023-04-11T14:23:44.871Z,27.85
2023-04-11T14:26:14.280Z,18.58
2023-04-11T14:28:44.364Z,19.42
2023-04-11T14:31:14.478Z,22.38
2023-04-11T14:33:44.448Z,22.77
2023-04-11T14:36:13.612Z,23.48
2023-04-11T14:38:43.598Z,16.20
2023-04-11T14:41:12.970Z,20.55
2023-04-11T14:43:42.918Z,25.10
2023-04-11T14:46:12.348Z,15.70
2023-04-11T14:48:41.771Z,20.50
2023-04-11T14:51:11.605Z,21.20
2023-04-11T14:53:40.940Z,20.63
2023-04-11T14:56:10.655Z,23.05
2023-04-11T14:58:41.242Z,21.48
2023-04-11T15:01:11.283Z,31.15
2023-04-11T15:03:41.128Z,24.63
2023-04-11T15:06:14.201Z,26.73
2023-04-11T15:08:43.722Z,31.30
2023-04-11T15:11:13.312Z,28.20
2023-04-11T15:13:42.932Z,29.48
2023-04-11T15:16:13.070Z,32.00
2023-04-11T15:18:42.817Z,32.75
2023-04-11T15:21:12.341Z,38.47
2023-04-11T15:23:41.789Z,44.83
2023-04-11T15:26:11.170Z,30.95
2023-04-11T15:28:42.454Z,30.40
2023-04-11T15:31:13.979Z,34.45
2023-04-11T15:33:44.367Z,34.13
2023-04-11T15:36:13.954Z,35.88
2023-04-11T15:38:43.094Z,30.88
2023-04-11T15:41:12.731Z,34.85
2023-04-11T15:43:41.858Z,28.42
2023-04-11T15:46:11.898Z,33.75
2023-04-11T15:48:41.502Z,32.53
2023-04-11T15:51:12.405Z,39.75
2023-04-11T15:53:42.037Z,45.78
2023-04-11T15:56:12.180Z,28.40
2023-04-11T15:58:41.913Z,32.72
2023-04-11T16:01:26.153Z,34.28
2023-04-11T16:03:56.409Z,29.23
2023-04-11T16:06:27.195Z,33.92
2023-04-11T16:08:56.636Z,38.08
2023-04-11T16:11:26.409Z,27.70
2023-04-11T16:13:56.118Z,32.60
2023-04-11T16:16:26.321Z,45.08
2023-04-11T16:18:55.582Z,38.03
2023-04-11T16:21:26.016Z,29.48
2023-04-11T16:23:58.614Z,34.63
2023-04-11T16:26:28.506Z,32.72
2023-04-11T16:28:57.994Z,34.08
2023-04-11T16:31:28.524Z,31.30
2023-04-11T16:33:58.699Z,34.55
2023-04-11T16:36:29.617Z,35.33
2023-04-11T16:38:59.171Z,33.50
2023-04-11T16:41:29.650Z,38.35
2023-04-11T16:43:59.123Z,37.03
2023-04-11T16:46:28.921Z,26.13
2023-04-11T16:48:58.520Z,38.30
2023-04-11T16:51:28.403Z,28.42
2023-04-11T16:53:59.254Z,40.38
2023-04-11T16:56:29.206Z,29.30
2023-04-11T16:58:58.674Z,30.25
2023-04-11T17:01:28.265Z,33.38
2023-04-11T17:03:57.772Z,36.25
2023-04-11T17:06:28.461Z,32.80
2023-04-11T17:08:58.803Z,36.63
2023-04-11T17:11:28.925Z,31.17
2023-04-11T17:13:58.921Z,41.05
2023-04-11T17:16:28.917Z,43.55
2023-04-11T17:18:58.391Z,36.35
2023-04-11T17:21:28.541Z,38.75
2023-04-11T17:23:58.721Z,37.70
2023-04-11T17:26:28.566Z,40.45
2023-04-11T17:28:58.271Z,43.60
2023-04-11T17:31:30.186Z,46.97
2023-04-11T17:34:00.058Z,45.67
2023-04-11T17:36:29.984Z,33.88
2023-04-11T17:38:59.636Z,51.67
2023-04-11T17:41:29.549Z,36.20
2023-04-11T17:43:59.151Z,42.80
2023-04-11T17:46:29.457Z,49.70
2023-04-11T17:48:59.130Z,47.35
2023-04-11T17:51:29.329Z,43.08
2023-04-11T17:53:59.613Z,56.95
2023-04-11T17:56:29.718Z,50.20
2023-04-11T17:58:58.920Z,47.05
2023-04-11T18:01:33.305Z,35.67
2023-04-11T18:04:03.291Z,45.10
2023-04-11T18:06:35.305Z,46.20
2023-04-11T18:09:06.364Z,48.22
2023-04-11T18:11:38.837Z,42.05
2023-04-11T18:14:08.217Z,45.42
2023-04-11T18:16:37.804Z,38.92
2023-04-11T18:19:07.494Z,38.22
2023-04-11T18:21:37.529Z,43.10
2023-04-11T18:24:07.609Z,47.38
2023-04-11T18:26:37.088Z,45.10
2023-04-11T18:29:07.131Z,58.10
2023-04-11T18:31:36.738Z,45.33
2023-04-11T18:34:07.111Z,46.60
2023-04-11T18:36:37.574Z,54.50
2023-04-11T18:39:07.168Z,45.03
2023-04-11T18:41:36.744Z,40.95
2023-04-11T18:44:09.557Z,49.92
2023-04-11T18:46:39.753Z,45.08
2023-04-11T18:49:09.634Z,47.40
2023-04-11T18:51:40.237Z,43.42
2023-04-11T18:54:09.765Z,65.18
2023-04-11T18:56:40.319Z,48.67
2023-04-11T18:59:10.913Z,50.30
2023-04-11T19:01:43.088Z,52.25
2023-04-11T19:04:13.442Z,68.90
2023-04-11T19:06:44.129Z,53.50
2023-04-11T19:09:18.089Z,64.43
2023-04-11T19:11:47.687Z,47.42
2023-04-11T19:14:18.338Z,51.03
2023-04-11T19:16:48.203Z,58.95
2023-04-11T19:19:18.016Z,49.22
2023-04-11T19:21:47.748Z,69.25
2023-04-11T19:24:17.420Z,59.60
2023-04-11T19:26:46.933Z,61.33
2023-04-11T19:29:16.691Z,56.47
2023-04-11T19:31:45.962Z,55.55
2023-04-11T19:34:16.500Z,55.60
2023-04-11T19:36:45.975Z,55.47
2023-04-11T19:41:48.529Z,42.10
2023-04-11T19:44:18.750Z,60.08
2023-04-11T19:46:48.215Z,42.88
2023-04-11T19:49:17.729Z,47.25
2023-04-11T19:51:46.752Z,56.75
2023-04-11T19:54:17.302Z,60.38
2023-04-11T19:56:50.096Z,58.63
2023-04-11T20:01:49.112Z,39.25
2023-04-11T20:04:18.868Z,44.22
2023-04-11T20:06:51.902Z,42.83
2023-04-11T20:11:52.490Z,36.50
2023-04-11T20:14:22.304Z,29.38
2023-04-11T20:16:51.925Z,33.03
2023-04-11T20:19:28.699Z,29.63
2023-04-11T20:21:58.091Z,37.65
2023-04-11T20:24:27.182Z,34.25
2023-04-11T20:26:58.345Z,33.17
2023-04-11T20:29:33.725Z,33.78
2023-04-11T20:32:03.538Z,31.23
2023-04-11T20:34:32.807Z,34.72
2023-04-11T20:37:02.873Z,32.20
2023-04-11T20:39:34.931Z,29.50
2023-04-11T20:42:04.770Z,33.47
2023-04-11T20:44:37.051Z,38.95
2023-04-11T20:47:08.716Z,35.85
2023-04-11T20:49:37.961Z,24.27
2023-04-11T20:52:07.712Z,28.73
2023-04-11T20:54:37.274Z,33.72
2023-04-11T20:57:06.473Z,40.22
2023-04-11T20:59:35.901Z,35.47
2023-04-11T21:02:05.239Z,35.22
2023-04-11T21:04:34.811Z,42.50
2023-04-11T21:07:04.147Z,40.78
2023-04-11T21:09:33.479Z,41.17
2023-04-11T21:12:03.362Z,49.33
2023-04-11T21:14:34.367Z,55.17
2023-04-11T21:17:03.721Z,42.58
2023-04-11T21:19:33.235Z,40.55
2023-04-11T21:22:03.390Z,37.72
2023-04-11T21:24:36.963Z,43.63
2023-04-11T21:27:06.588Z,45.17
2023-04-11T21:29:36.245Z,45.03
2023-04-11T21:32:05.235Z,43.42
2023-04-11T21:34:34.684Z,41.63
2023-04-11T21:37:03.938Z,38.00
2023-04-11T21:39:33.894Z,40.22
2023-04-11T21:42:03.726Z,44.40
2023-04-11T21:44:32.809Z,45.17
2023-04-11T21:47:02.440Z,34.53
2023-04-11T21:49:32.274Z,42.63
2023-04-11T21:52:01.467Z,39.75
2023-04-11T21:54:30.893Z,43.72
2023-04-11T21:56:59.931Z,42.22
2023-04-11T21:59:29.822Z,49.28
2023-04-11T22:01:59.068Z,40.65
2023-04-11T22:04:30.203Z,43.20
2023-04-11T22:07:00.223Z,40.13
2023-04-11T22:09:29.330Z,42.13
2023-04-11T22:11:58.726Z,41.80
2023-04-11T22:14:29.749Z,33.53
2023-04-11T22:17:02.238Z,42.20
2023-04-11T22:19:34.820Z,37.25
2023-04-11T22:22:06.746Z,42.45
2023-04-11T22:24:39.490Z,42.40
2023-04-11T22:27:11.479Z,39.90
2023-04-11T22:29:43.406Z,45.03
2023-04-11T22:32:13.048Z,44.47
2023-04-11T22:34:42.324Z,35.08
2023-04-11T22:37:11.474Z,46.60
2023-04-11T22:39:41.517Z,49.40
2023-04-11T22:42:12.695Z,50.42
2023-04-11T22:44:41.890Z,35.88
2023-04-11T22:47:14.605Z,39.22
2023-04-11T22:49:45.666Z,42.67
2023-04-11T22:52:16.156Z,46.10
2023-04-11T22:54:45.846Z,38.13
2023-04-11T22:57:15.522Z,50.17
2023-04-11T22:59:45.589Z,41.25
2023-04-11T23:02:15.050Z,41.63
2023-04-11T23:04:45.730Z,40.35
2023-04-11T23:07:15.212Z,48.45
2023-04-11T23:09:46.080Z,46.08
2023-04-11T23:12:15.320Z,48.00
2023-04-11T23:14:44.631Z,39.05
2023-04-11T23:17:14.785Z,49.67
2023-04-11T23:19:44.471Z,40.03
2023-04-11T23:22:13.666Z,45.65
2023-04-11T23:24:43.003Z,45.92
2023-04-11T23:27:12.750Z,41.72
2023-04-11T23:29:42.043Z,49.25
2023-04-11T23:32:11.437Z,46.38
2023-04-11T23:34:41.372Z,50.65
2023-04-11T23:37:10.784Z,44.80
2023-04-11T23:39:40.020Z,51.17
2023-04-11T23:42:09.786Z,55.40
2023-04-11T23:44:39.520Z,58.05
2023-04-11T23:47:09.045Z,49.47
2023-04-11T23:49:38.307Z,58.97
2023-04-11T23:52:08.696Z,50.38
2023-04-11T23:54:38.026Z,60.75
2023-04-11T23:57:07.520Z,57.72
2023-04-11T23:59:37.346Z,54.08
